createdAt,value
2018-12-07T00:18:39.339Z,95863.13
2018-12-07T00:38:31.552Z,95844.64
2018-12-07T00:41:01.119Z,95846.27
2018-12-07T00:43:30.767Z,95847.91
2018-12-07T00:46:00.277Z,95841.65
2018-12-07T00:48:30.041Z,95836.67
2018-12-07T00:50:59.720Z,95844.72
2018-12-07T00:53:29.322Z,95840.21
2018-12-07T00:55:58.973Z,95836.84
2018-12-07T00:58:28.809Z,95836.28
2018-12-07T01:00:58.443Z,95832.28
2018-12-07T01:03:28.059Z,95826.55
2018-12-07T01:05:57.523Z,95835.31
2018-12-07T01:08:27.398Z,95840.36
2018-12-07T01:10:57.188Z,95834.34
2018-12-07T01:13:26.580Z,95832.67
2018-12-07T01:15:56.423Z,95842.14
2018-12-07T01:18:25.894Z,95847.69
2018-12-07T01:20:55.520Z,95851.73
2018-12-07T01:23:25.361Z,95846.98
2018-12-07T01:25:54.824Z,95842.52
2018-12-07T01:28:24.655Z,95837.52
2018-12-07T01:30:54.575Z,95840.13
2018-12-07T01:33:24.300Z,95838.41
2018-12-07T01:35:53.994Z,95839.64
2018-12-07T01:38:24.269Z,95839.30
2018-12-07T01:40:53.728Z,95841.69
2018-12-07T01:43:23.217Z,95834.77
2018-12-07T01:45:53.064Z,95840.63
2018-12-07T01:48:22.554Z,95836.98
2018-12-07T01:50:52.134Z,95845.29
2018-12-07T01:53:21.857Z,95848.05
2018-12-07T02:13:13.411Z,95851.56
2018-12-07T02:15:43.045Z,95851.03
2018-12-07T02:18:12.734Z,95840.09
2018-12-07T02:38:04.353Z,95825.66
2018-12-07T02:40:34.089Z,95817.59
2018-12-07T03:00:25.438Z,95831.66
2018-12-07T03:02:55.131Z,95841.73
2018-12-07T03:05:25.004Z,95848.69
2018-12-07T03:07:54.876Z,95849.11
2018-12-07T03:27:46.401Z,95853.80
2018-12-07T03:30:16.016Z,95862.84
2018-12-07T03:32:45.702Z,95854.84
2018-12-07T03:52:36.643Z,95847.47
2018-12-07T03:55:05.931Z,95849.13
2018-12-07T04:20:46.072Z,95866.97
2018-12-07T04:23:15.769Z,95882.45
2018-12-07T04:25:45.492Z,95872.70
2018-12-07T04:45:38.813Z,95856.84
2018-12-07T04:48:08.531Z,95858.94
2018-12-07T04:50:38.296Z,95856.43
2018-12-07T04:53:07.862Z,95862.30
2018-12-07T04:55:37.370Z,95860.22
2018-12-07T04:58:06.904Z,95859.00
2018-12-07T05:00:37.021Z,95854.11
2018-12-07T05:03:06.636Z,95855.53
2018-12-07T05:05:36.240Z,95859.36
2018-12-07T05:08:05.964Z,95865.75
2018-12-07T05:10:35.756Z,95861.39
2018-12-07T05:13:05.153Z,95869.37
2018-12-07T05:15:34.987Z,95873.81
2018-12-07T05:18:04.389Z,95875.09
2018-12-07T05:20:33.977Z,95875.52
2018-12-07T05:23:03.823Z,95877.96
2018-12-07T05:25:34.320Z,95879.66
2018-12-07T05:28:03.980Z,95879.69
2018-12-07T05:47:56.249Z,95884.77
2018-12-07T05:50:25.868Z,95883.49
2018-12-07T05:52:55.172Z,95889.66
2018-12-07T05:55:25.179Z,95891.87
2018-12-07T05:57:54.816Z,95886.20
2018-12-07T06:00:24.555Z,95888.79
2018-12-07T06:02:54.268Z,95886.73
2018-12-07T06:05:23.813Z,95891.63
2018-12-07T06:07:53.562Z,95898.98
2018-12-07T06:10:23.399Z,95894.80
2018-12-07T06:12:52.969Z,95898.55
2018-12-07T06:15:22.737Z,95893.66
2018-12-07T06:17:52.247Z,95897.88
2018-12-07T06:20:21.780Z,95896.95
2018-12-07T06:22:51.453Z,95909.38
2018-12-07T06:25:21.309Z,95916.33
2018-12-07T06:27:50.985Z,95910.55
2018-12-07T06:30:20.744Z,95904.62
2018-12-07T06:32:50.692Z,95906.57
2018-12-07T06:52:41.837Z,95894.32
2018-12-07T06:55:11.702Z,95891.27
2018-12-07T06:57:41.187Z,95902.02
2018-12-07T07:00:11.016Z,95898.59
2018-12-07T07:02:41.133Z,95902.19
2018-12-07T07:22:32.660Z,95925.36
2018-12-07T07:25:08.979Z,95924.38
2018-12-07T07:27:38.635Z,95921.11
2018-12-07T07:30:09.740Z,95915.36
2018-12-07T07:32:39.287Z,95918.68
2018-12-07T07:35:09.112Z,95913.97
2018-12-07T07:37:39.585Z,95899.28
2018-12-07T07:40:09.192Z,95894.45
2018-12-07T07:42:38.848Z,95894.43
2018-12-07T07:45:09.041Z,95890.09
2018-12-07T07:47:38.556Z,95895.41
2018-12-07T08:21:58.246Z,95821.70
2018-12-07T08:24:28.219Z,95824.64
2018-12-07T08:26:57.899Z,95817.62
2018-12-07T08:29:27.622Z,95823.58
2018-12-07T08:31:57.445Z,95826.00
2018-12-07T08:51:49.735Z,95818.91
2018-12-07T08:54:19.421Z,95816.95
2018-12-07T08:56:48.829Z,95814.89
2018-12-07T08:59:18.560Z,95803.76
2018-12-07T09:01:48.378Z,95800.53
2018-12-07T09:04:17.935Z,95792.78
2018-12-07T09:06:47.588Z,95792.96
2018-12-07T09:09:17.404Z,95789.00
2018-12-07T09:11:47.287Z,95779.05
2018-12-07T09:14:16.995Z,95766.05
2018-12-07T09:16:47.139Z,95763.83
2018-12-07T09:19:16.719Z,95762.17
2018-12-07T09:21:46.352Z,95757.47
2018-12-07T09:24:16.069Z,95754.71
2018-12-07T09:26:45.869Z,95747.94
2018-12-07T09:29:15.605Z,95740.27
2018-12-07T09:31:45.540Z,95730.84
2018-12-07T09:34:14.993Z,95735.30
2018-12-07T09:36:44.810Z,95728.90
2018-12-07T09:39:14.928Z,95729.28
2018-12-07T09:41:44.804Z,95718.17
2018-12-07T09:44:14.578Z,95721.08
2018-12-07T09:46:44.682Z,95721.20
2018-12-07T09:49:14.249Z,95710.69
2018-12-07T09:51:43.921Z,95705.96
2018-12-07T09:54:14.032Z,95696.58
2018-12-07T09:56:43.632Z,95694.37
2018-12-07T09:59:13.427Z,95687.84
2018-12-07T10:01:44.204Z,95683.61
2018-12-07T10:04:13.962Z,95678.56
2018-12-07T10:06:44.088Z,95676.55
2018-12-07T10:09:14.021Z,95663.45
2018-12-07T10:11:43.605Z,95659.00
2018-12-07T10:14:13.517Z,95659.76
2018-12-07T10:34:05.897Z,95641.13
2018-12-07T10:36:35.630Z,95633.98
2018-12-07T10:39:06.058Z,95633.73
2018-12-07T10:58:58.161Z,95618.41
2018-12-07T11:01:32.878Z,95618.23
2018-12-07T11:04:07.694Z,95608.97
2018-12-07T11:24:04.245Z,95542.52
2018-12-07T11:26:39.246Z,95565.19
2018-12-07T11:29:13.972Z,95558.16
2018-12-07T11:31:48.944Z,95540.60
2018-12-07T11:34:21.784Z,95533.44
2018-12-07T11:54:15.118Z,95488.51
2018-12-07T11:56:44.962Z,95470.30
2018-12-07T11:59:14.659Z,95478.84
2018-12-07T12:01:45.115Z,95473.42
2018-12-07T12:04:14.423Z,95482.09
2018-12-07T12:06:44.046Z,95481.34
2018-12-07T12:26:37.634Z,95472.36
2018-12-07T12:29:07.136Z,95460.09
2018-12-07T12:31:37.095Z,95464.80
2018-12-07T12:34:07.396Z,95387.30
2018-12-07T12:36:37.145Z,95463.25
2018-12-07T12:39:08.393Z,95469.77
2018-12-07T12:41:37.919Z,95460.55
2018-12-07T12:44:07.520Z,95456.72
2018-12-07T12:46:37.587Z,95470.34
2018-12-07T12:49:07.335Z,95472.98
2018-12-07T12:51:37.080Z,95474.75
2018-12-07T12:54:06.995Z,95477.39
2018-12-07T12:56:37.042Z,95482.47
2018-12-07T12:59:06.658Z,95482.54
2018-12-07T13:01:36.556Z,95484.20
2018-12-07T13:04:05.972Z,95494.80
2018-12-07T13:06:35.552Z,95495.69
2018-12-07T13:26:26.776Z,95492.81
2018-12-07T13:28:56.284Z,95490.41
2018-12-07T13:31:25.972Z,95487.08
2018-12-07T13:51:17.102Z,95489.98
2018-12-07T13:53:46.909Z,95480.02
2018-12-07T14:13:38.974Z,95456.76
2018-12-07T14:16:08.599Z,95455.50
2018-12-07T14:18:38.268Z,95457.16
2018-12-07T14:21:07.761Z,95445.33
2018-12-07T14:23:37.486Z,95443.70
2018-12-07T14:26:07.132Z,95446.77
2018-12-07T14:28:37.710Z,95457.32
2018-12-07T14:31:07.290Z,95445.77
2018-12-07T14:33:36.808Z,95450.57
2018-12-07T14:36:06.295Z,95447.38
2018-12-07T14:38:36.082Z,95437.57
2018-12-07T14:41:05.485Z,95440.39
2018-12-07T14:43:35.221Z,95439.59
2018-12-07T14:46:04.919Z,95442.09
2018-12-07T14:48:34.532Z,95444.69
2018-12-07T14:51:03.839Z,95442.09
2018-12-07T15:10:56.311Z,95423.78
2018-12-07T15:13:25.719Z,95418.12
2018-12-07T15:15:55.222Z,95426.05
2018-12-07T15:18:25.222Z,95420.75
2018-12-07T15:38:17.270Z,95433.53
2018-12-07T15:55:16.515Z,95458.66
2018-12-07T15:57:46.639Z,95459.41
2018-12-07T16:00:16.799Z,95459.76
2018-12-07T16:02:46.795Z,95458.34
2018-12-07T16:05:16.257Z,95461.64
2018-12-07T16:07:45.982Z,95469.11
2018-12-07T16:10:15.758Z,95472.86
2018-12-07T16:12:45.566Z,95471.14
2018-12-07T16:15:15.357Z,95474.60
2018-12-07T16:17:45.038Z,95468.88
2018-12-07T16:20:17.616Z,95476.34
2018-12-07T16:22:47.275Z,95470.86
2018-12-07T16:25:16.727Z,95474.44
2018-12-07T16:27:46.659Z,95469.95
2018-12-07T16:30:16.503Z,95471.10
2018-12-07T16:32:46.169Z,95464.89
2018-12-07T16:35:15.919Z,95455.53
2018-12-07T16:37:45.563Z,95450.70
2018-12-07T16:40:15.090Z,95460.12
2018-12-07T16:42:45.494Z,95455.23
2018-12-07T16:45:14.802Z,95445.83
2018-12-07T16:47:44.448Z,95437.47
2018-12-07T16:50:14.389Z,95445.10
2018-12-07T16:52:44.140Z,95436.61
2018-12-07T16:55:14.035Z,95428.81
2018-12-07T16:57:43.676Z,95436.30
2018-12-07T17:00:13.155Z,95437.30
2018-12-07T17:02:43.090Z,95441.84
2018-12-07T17:05:13.127Z,95448.00
2018-12-07T17:07:42.537Z,95442.41
2018-12-07T17:10:12.309Z,95448.92
2018-12-07T17:12:42.027Z,95441.47
2018-12-07T17:15:11.359Z,95438.83
2018-12-07T17:17:40.883Z,95443.73
2018-12-07T17:20:10.529Z,95436.24
2018-12-07T17:22:40.095Z,95437.53
2018-12-07T17:25:09.760Z,95435.09
2018-12-07T17:27:39.419Z,95423.30
2018-12-07T17:30:09.309Z,95433.27
2018-12-07T17:32:38.940Z,95422.30
2018-12-07T17:35:08.676Z,95415.69
2018-12-07T17:37:38.372Z,95416.83
2018-12-07T17:40:08.165Z,95418.80
2018-12-07T17:42:38.161Z,95417.91
2018-12-07T17:45:07.895Z,95428.52
2018-12-07T17:47:37.520Z,95419.94
2018-12-07T17:50:07.790Z,95429.51
2018-12-07T17:52:37.348Z,95434.02
2018-12-07T17:55:13.982Z,95431.69
2018-12-07T17:57:43.385Z,95431.22
2018-12-07T18:00:13.433Z,95427.09
2018-12-07T18:02:43.535Z,95413.66
2018-12-07T18:05:13.358Z,95419.16
2018-12-07T18:07:42.802Z,95413.47
2018-12-07T18:10:12.529Z,95401.91
2018-12-07T18:12:42.115Z,95406.34
2018-12-07T18:15:12.163Z,95407.92
2018-12-07T18:17:41.935Z,95400.24
2018-12-07T18:20:11.631Z,95392.70
2018-12-07T18:22:41.287Z,95387.97
2018-12-07T18:25:11.631Z,95399.14
2018-12-07T18:27:40.969Z,95405.08
2018-12-07T18:30:10.450Z,95413.96
2018-12-07T18:32:40.452Z,95406.60
2018-12-07T18:35:09.933Z,95414.48
2018-12-07T18:37:39.388Z,95405.44
2018-12-07T18:40:15.657Z,95399.10
2018-12-07T18:42:45.971Z,95367.84
2018-12-07T18:45:15.570Z,95396.93
2018-12-07T18:47:45.579Z,95391.20
2018-12-07T18:50:14.932Z,95396.79
2018-12-07T18:52:44.768Z,95393.57
2018-12-07T18:55:14.974Z,95391.47
2018-12-07T18:57:44.983Z,95390.83
2018-12-07T19:00:14.276Z,95389.86
2018-12-07T19:02:45.367Z,95392.66
2018-12-07T19:05:14.981Z,95390.52
2018-12-07T19:07:44.873Z,95391.20
2018-12-07T19:10:14.688Z,95388.77
2018-12-07T19:12:44.392Z,95383.42
2018-12-07T19:15:14.387Z,95384.70
2018-12-07T19:17:44.104Z,95392.58
2018-12-07T19:20:13.585Z,95396.84
2018-12-07T19:22:43.107Z,95395.55
2018-12-07T19:25:13.048Z,95393.31
2018-12-07T19:27:42.592Z,95387.52
2018-12-07T19:30:15.379Z,95386.89
2018-12-07T19:32:44.899Z,95379.80
2018-12-07T19:35:14.978Z,95367.87
2018-12-07T19:37:46.211Z,95369.78
2018-12-07T19:40:15.910Z,95378.02
2018-12-07T19:42:47.573Z,95372.07
2018-12-07T19:45:18.807Z,95379.00
2018-12-07T19:47:49.428Z,95340.02
2018-12-07T19:50:20.508Z,95376.00
2018-12-07T19:52:50.474Z,95371.73
2018-12-07T19:55:21.067Z,95378.84
2018-12-07T19:57:51.314Z,95377.62
2018-12-07T20:00:25.093Z,95373.36
2018-12-07T20:02:55.672Z,95359.75
2018-12-07T20:05:26.290Z,95365.45
2018-12-07T20:07:56.203Z,95348.94
2018-12-07T20:10:29.917Z,95350.66
2018-12-07T20:13:08.080Z,95350.92
2018-12-07T20:15:37.485Z,95359.63
2018-12-07T20:18:08.137Z,95352.91
2018-12-07T20:20:38.672Z,95354.59
2018-12-07T20:23:08.789Z,95351.98
2018-12-07T20:25:39.826Z,95343.41
2018-12-07T20:28:10.043Z,95336.23
2018-12-07T20:30:40.016Z,95339.34
2018-12-07T20:33:11.009Z,95331.61
2018-12-07T20:35:42.223Z,95333.00
2018-12-07T20:38:14.156Z,95323.77
2018-12-07T20:40:44.764Z,95321.79
2018-12-07T20:43:17.912Z,95322.02
2018-12-07T20:45:50.106Z,95309.95
2018-12-07T20:48:21.989Z,95307.60
2018-12-07T20:50:52.891Z,95312.93
2018-12-07T20:53:24.900Z,95316.62
2018-12-07T20:55:58.309Z,95328.70
2018-12-07T20:58:35.188Z,95321.56
2018-12-07T21:01:05.268Z,95327.40
2018-12-07T21:04:42.601Z,95316.33
2018-12-07T21:07:43.086Z,95310.74
2018-12-07T21:10:34.772Z,95309.75
2018-12-07T21:13:22.378Z,95309.31
2018-12-07T21:15:52.304Z,95311.91
2018-12-07T21:18:21.985Z,95314.99
2018-12-07T21:20:52.502Z,95312.06
2018-12-07T21:23:22.263Z,95313.56
2018-12-07T21:25:53.388Z,95317.23
2018-12-07T21:28:23.950Z,95318.85
2018-12-07T21:35:00.666Z,95321.81
2018-12-07T21:37:30.457Z,95309.62
2018-12-07T21:40:12.012Z,95304.80
2018-12-07T21:42:41.565Z,95306.05
2018-12-07T21:45:11.467Z,95309.44
2018-12-07T21:48:14.306Z,95304.95
2018-12-07T21:50:46.342Z,95305.13
2018-12-07T21:53:16.810Z,95294.03
2018-12-07T21:55:46.771Z,95294.25
2018-12-07T21:58:16.319Z,95287.45
2018-12-07T22:00:46.315Z,95290.39
2018-12-07T22:03:15.917Z,95289.07
2018-12-07T22:05:45.545Z,95278.81
2018-12-07T22:08:15.282Z,95272.78
2018-12-07T22:10:45.000Z,95282.05
2018-12-07T22:13:14.950Z,95277.95
2018-12-07T22:15:44.811Z,95278.58
2018-12-07T22:18:14.515Z,95276.75
2018-12-07T22:20:43.904Z,95268.71
2018-12-07T22:23:14.274Z,95251.73
2018-12-07T22:25:43.664Z,95255.86
2018-12-07T22:28:13.342Z,95257.95
2018-12-07T22:30:43.585Z,95256.41
2018-12-07T22:33:13.209Z,95255.78
2018-12-07T22:35:43.198Z,95247.93
2018-12-07T22:38:13.398Z,95251.17
2018-12-07T22:40:43.174Z,95245.23
2018-12-07T22:43:12.791Z,95242.97
2018-12-07T22:45:43.123Z,95242.36
2018-12-07T22:48:12.660Z,95237.99
2018-12-07T22:50:42.391Z,95229.18
2018-12-07T22:53:13.230Z,95227.47
2018-12-07T22:55:42.999Z,95224.58
2018-12-07T22:58:12.524Z,95219.77
2018-12-07T23:00:44.359Z,95221.34
2018-12-07T23:03:14.065Z,95208.31
2018-12-07T23:05:43.652Z,95205.55
2018-12-07T23:08:13.441Z,95203.30
2018-12-07T23:10:42.945Z,95204.51
2018-12-07T23:13:12.443Z,95201.97
2018-12-07T23:15:42.292Z,95191.06
2018-12-07T23:18:11.816Z,95191.30
2018-12-07T23:20:41.543Z,95199.23
2018-12-07T23:23:11.282Z,95192.88
2018-12-07T23:25:40.929Z,95201.02
2018-12-07T23:28:10.495Z,95198.20
2018-12-07T23:30:40.451Z,95193.53
2018-12-07T23:33:10.064Z,95193.11
2018-12-07T23:35:39.658Z,95194.09
2018-12-07T23:38:09.589Z,95192.95
2018-12-07T23:40:39.159Z,95185.02
2018-12-07T23:43:10.941Z,95184.70
2018-12-07T23:45:40.698Z,95183.41
2018-12-07T23:48:10.659Z,95174.33
2018-12-07T23:50:40.805Z,95178.41
2018-12-07T23:53:10.422Z,95180.84
2018-12-07T23:55:40.196Z,95182.84
2018-12-07T23:58:10.337Z,95184.08
